Time;durP1;ratioP1;P1;durP2;ratioP2;P2;SDS_P1;SDS_P2;PMS_P1;PMS_P2;Temp;Humidity;BMP_temperature;BMP_pressure;BME280_temperature;BME280_humidity;BME280_pressure;Samples;Min_cycle;Max_cycle;Signal;HPM_P1;HPM_P2
2022/07/16 00:01:22;145032.00;0.48;251.24;0.00;0.00;0.62;;;;;22.40;1.00;;;;;;2272905;61;981;-86
2022/07/16 00:01:47;26242.00;0.09;46.08;0.00;0.00;0.62;;;;;22.40;1.00;;;;;;2272763;61;1379;-87
2022/07/16 00:04:14;53499.00;0.18;93.24;0.00;0.00;0.62;;;;;22.60;1.00;;;;;;2272843;61;1067;-85
2022/07/16 00:06:43;145029.00;0.48;251.24;0.00;0.00;0.62;;;;;22.20;1.00;;;;;;2272834;61;1575;-85
2022/07/16 00:09:10;70228.00;0.23;122.15;0.00;0.00;0.62;;;;;22.10;1.00;;;;;;2272771;61;1123;-86
2022/07/16 00:11:38;235775.00;0.79;407.48;57861.00;0.19;100.78;;;;;22.20;1.00;;;;;;2272837;61;1419;-86
2022/07/16 00:14:05;183020.00;0.61;316.69;0.00;0.00;0.62;;;;;22.10;1.00;;;;;;2272847;61;886;-86
2022/07/16 00:16:32;346944.00;1.16;598.61;0.00;0.00;0.62;;;;;21.90;1.00;;;;;;2272714;61;1993;-85
2022/07/16 00:19:18;316690.00;1.06;546.61;88004.00;0.29;152.86;;;;;21.90;1.00;;;;;;2272846;61;1599;-85
2022/07/16 00:21:46;65580.00;0.22;114.12;0.00;0.00;0.62;;;;;22.00;1.00;;;;;;2272709;61;1356;-86
2022/07/16 00:24:13;173241.00;0.58;299.85;0.00;0.00;0.62;;;;;21.90;1.00;;;;;;2272762;61;1034;-86
2022/07/16 00:26:42;24048.00;0.08;42.28;0.00;0.00;0.62;;;;;21.60;1.00;;;;;;2272711;61;1045;-86
2022/07/16 00:29:09;73658.00;0.25;128.08;0.00;0.00;0.62;;;;;21.30;1.00;;;;;;2272709;61;1078;-86
2022/07/16 00:31:36;26021.00;0.09;45.70;0.00;0.00;0.62;;;;;21.20;1.00;;;;;;2272739;61;1320;-86
2022/07/16 00:34:05;235766.00;0.79;407.47;0.00;0.00;0.62;;;;;21.10;1.00;;;;;;2272682;61;1082;-87
2022/07/16 00:36:32;162601.00;0.54;281.52;0.00;0.00;0.62;;;;;21.20;1.00;;;;;;2272737;61;1919;-86
2022/07/16 00:38:59;139827.00;0.47;242.27;0.00;0.00;0.62;;;;;21.30;1.00;;;;;;2272563;61;1146;-88
2022/07/16 00:41:26;125924.00;0.42;218.30;0.00;0.00;0.62;;;;;21.40;1.00;;;;;;2272692;61;1364;-86
2022/07/16 00:44:00;285132.00;0.95;492.36;0.00;0.00;0.62;;;;;21.50;1.00;;;;;;2272642;61;1090;-87
2022/07/16 00:46:28;123536.00;0.41;214.18;0.00;0.00;0.62;;;;;21.60;1.00;;;;;;2272739;61;928;-85
2022/07/16 00:48:56;44923.00;0.15;78.41;0.00;0.00;0.62;;;;;21.50;1.00;;;;;;2272627;61;1544;-86
2022/07/16 00:51:23;21144.00;0.07;37.25;0.00;0.00;0.62;;;;;21.50;1.00;;;;;;2272567;61;1552;-86
2022/07/16 00:53:52;246745.00;0.82;426.35;0.00;0.00;0.62;;;;;21.30;1.00;;;;;;2272560;61;1019;-86
2022/07/16 00:56:18;151967.00;0.51;263.20;28088.00;0.09;49.27;;;;;21.00;1.00;;;;;;2272653;61;1986;-86
2022/07/16 00:58:48;96802.00;0.32;168.05;0.00;0.00;0.62;;;;;20.80;1.00;;;;;;2272576;61;1219;-86
2022/07/16 01:01:16;113196.00;0.38;196.34;0.00;0.00;0.62;;;;;20.70;1.00;;;;;;2272665;61;1283;-86
2022/07/16 01:03:45;188588.00;0.63;326.28;0.00;0.00;0.62;;;;;20.70;1.00;;;;;;2272624;61;1035;-88
2022/07/16 01:06:14;180097.00;0.60;311.66;0.00;0.00;0.62;;;;;20.60;1.00;;;;;;2272587;61;1077;-85
2022/07/16 01:08:43;60252.00;0.20;104.91;0.00;0.00;0.62;;;;;20.90;1.00;;;;;;2272550;61;1491;-86
2022/07/16 01:11:13;84745.00;0.28;147.23;0.00;0.00;0.62;;;;;21.20;1.00;;;;;;2272554;61;1390;-85
2022/07/16 01:13:43;190810.00;0.64;330.10;0.00;0.00;0.62;;;;;21.30;1.00;;;;;;2272576;61;1026;-85
2022/07/16 01:16:11;98344.00;0.33;170.71;0.00;0.00;0.62;;;;;21.10;1.00;;;;;;2272477;61;2005;-87
2022/07/16 01:18:41;372427.00;1.24;642.41;27048.00;0.09;47.47;;;;;21.20;1.00;;;;;;2272506;61;1521;-86
2022/07/16 01:21:09;183322.00;0.61;317.21;0.00;0.00;0.62;;;;;21.10;1.00;;;;;;2272443;61;1437;-87
2022/07/16 01:23:37;254223.00;0.85;439.21;0.00;0.00;0.62;;;;;21.00;1.00;;;;;;2272548;61;1093;-86
2022/07/16 01:26:05;290242.00;0.97;501.15;20653.00;0.07;36.40;;;;;20.90;1.00;;;;;;2272524;61;977;-86
2022/07/16 01:28:32;243214.00;0.81;420.28;0.00;0.00;0.62;;;;;20.90;1.00;;;;;;2272593;61;1558;-87
2022/07/16 01:30:59;141524.00;0.47;245.20;0.00;0.00;0.62;;;;;20.70;1.00;;;;;;2272500;61;1412;-86
2022/07/16 01:33:30;150343.00;0.50;260.40;0.00;0.00;0.62;;;;;20.20;1.00;;;;;;2272583;61;999;-87
2022/07/16 01:36:00;132706.00;0.44;230.00;0.00;0.00;0.62;;;;;19.70;1.00;;;;;;2272506;61;1082;-87
2022/07/16 01:38:28;391998.00;1.31;676.05;94171.00;0.31;163.51;;;;;19.60;1.00;;;;;;2272457;61;2003;-87
2022/07/16 01:40:56;458308.00;1.53;790.07;127765.00;0.43;221.48;;;;;19.50;1.00;;;;;;2272424;61;1300;-86
2022/07/16 01:43:26;389678.00;1.30;672.06;0.00;0.00;0.62;;;;;20.10;1.00;;;;;;2272496;61;1102;-87
2022/07/16 01:45:54;183604.00;0.61;317.70;0.00;0.00;0.62;;;;;20.40;1.00;;;;;;2272450;61;1014;-87
2022/07/16 01:48:22;144770.00;0.48;250.79;0.00;0.00;0.62;;;;;20.70;1.00;;;;;;2272562;61;1046;-86
2022/07/16 01:50:50;177275.00;0.59;306.80;0.00;0.00;0.62;;;;;20.50;1.00;;;;;;2272450;61;1289;-86
2022/07/16 01:53:17;239805.00;0.80;414.42;0.00;0.00;0.62;;;;;20.70;1.00;;;;;;2272494;61;1032;-87
2022/07/16 01:55:45;121067.00;0.40;209.92;0.00;0.00;0.62;;;;;20.90;1.00;;;;;;2272485;61;951;-86
2022/07/16 01:58:15;156682.00;0.52;271.32;0.00;0.00;0.62;;;;;20.90;1.00;;;;;;2272378;61;1932;-85
2022/07/16 02:00:44;73811.00;0.25;128.35;0.00;0.00;0.62;;;;;21.10;1.00;;;;;;2272376;61;1450;-86
2022/07/16 02:03:12;177488.00;0.59;307.16;0.00;0.00;0.62;;;;;21.30;1.00;;;;;;2272412;61;1508;-85
2022/07/16 02:05:38;83702.00;0.28;145.43;0.00;0.00;0.62;;;;;21.10;1.00;;;;;;2272353;61;1661;-86
2022/07/16 02:08:06;149790.00;0.50;259.45;28309.00;0.09;49.66;;;;;21.30;1.00;;;;;;2272439;61;1089;-85
2022/07/16 02:10:34;58021.00;0.19;101.06;0.00;0.00;0.62;;;;;21.50;1.00;;;;;;2272279;61;1386;-87
2022/07/16 02:13:01;18448.00;0.06;32.58;0.00;0.00;0.62;;;;;21.30;1.00;;;;;;2272447;61;1020;-85
2022/07/16 02:15:30;77830.00;0.26;135.29;0.00;0.00;0.62;;;;;21.30;1.00;;;;;;2272423;61;1604;-87
2022/07/16 02:17:57;120572.00;0.40;209.07;0.00;0.00;0.62;;;;;21.50;1.00;;;;;;2272471;61;2005;-86
2022/07/16 02:20:24;248362.00;0.83;429.13;0.00;0.00;0.62;;;;;21.60;1.00;;;;;;2272363;61;1332;-87
2022/07/16 02:22:52;323843.00;1.08;558.90;0.00;0.00;0.62;;;;;21.50;1.00;;;;;;2272422;61;1077;-85
2022/07/16 02:25:19;437917.00;1.46;755.00;34520.00;0.12;60.41;;;;;21.20;1.00;;;;;;2301752;56;3819;-84
2022/07/16 02:30:33;9164.00;0.03;16.50;0.00;0.00;0.62;;;;;21.10;1.00;;;;;;2272372;61;1423;-86
2022/07/16 02:33:00;201557.00;0.67;348.60;0.00;0.00;0.62;;;;;21.00;1.00;;;;;;2272243;61;1157;-86
2022/07/16 02:35:26;123701.00;0.41;214.47;0.00;0.00;0.62;;;;;21.00;1.00;;;;;;2272237;61;1235;-85
2022/07/16 02:37:53;236085.00;0.79;408.02;24758.00;0.08;43.51;;;;;20.90;1.00;;;;;;2272361;61;1994;-85
2022/07/16 02:40:20;148533.00;0.50;257.28;0.00;0.00;0.62;;;;;21.10;1.00;;;;;;2272355;61;1089;-85
2022/07/16 02:42:47;237878.00;0.79;411.10;0.00;0.00;0.62;;;;;21.20;1.00;;;;;;2272312;61;1130;-86
2022/07/16 02:45:14;28537.00;0.10;50.05;0.00;0.00;0.62;;;;;21.40;1.00;;;;;;2272361;61;1044;-85
2022/07/16 02:47:43;73930.00;0.25;128.55;0.00;0.00;0.62;;;;;21.50;1.00;;;;;;2272287;61;1304;-87
2022/07/16 02:50:10;62125.00;0.21;108.15;0.00;0.00;0.62;;;;;21.40;1.00;;;;;;2272344;61;1026;-87
2022/07/16 02:52:37;118575.00;0.40;205.62;0.00;0.00;0.62;;;;;21.40;1.00;;;;;;2272255;61;1424;-87
2022/07/16 02:55:05;127752.00;0.43;221.45;0.00;0.00;0.62;;;;;21.50;1.00;;;;;;2272286;61;909;-88
2022/07/16 02:57:32;80652.00;0.27;140.16;0.00;0.00;0.62;;;;;21.60;1.00;;;;;;2272305;61;1993;-86
2022/07/16 03:00:00;151624.00;0.51;262.61;0.00;0.00;0.62;;;;;21.00;1.00;;;;;;2272295;61;1042;-88
2022/07/16 03:02:27;213980.00;0.71;369.98;0.00;0.00;0.62;;;;;21.00;1.00;;;;;;2272253;61;1386;-87
2022/07/16 03:04:55;178485.00;0.59;308.88;0.00;0.00;0.62;;;;;21.20;1.00;;;;;;2272205;61;1188;-87
2022/07/16 03:07:22;164829.00;0.55;285.36;36078.00;0.12;63.10;;;;;21.30;1.00;;;;;;2272202;61;1429;-88
2022/07/16 03:09:49;353371.00;1.18;609.66;111973.00;0.37;194.23;;;;;21.00;1.00;;;;;;2272285;61;1725;-87
2022/07/16 03:12:18;31858.00;0.11;55.80;0.00;0.00;0.62;;;;;21.10;1.00;;;;;;2272263;61;1305;-86
2022/07/16 03:14:45;130820.00;0.44;226.74;23534.00;0.08;41.39;;;;;20.90;1.00;;;;;;2272218;61;1016;-85
2022/07/16 03:17:12;201129.00;0.67;347.87;0.00;0.00;0.62;;;;;20.70;1.00;;;;;;2272195;61;1915;-87
2022/07/16 03:19:39;175549.00;0.59;303.82;0.00;0.00;0.62;;;;;20.70;1.00;;;;;;2272252;61;1251;-87
2022/07/16 03:22:07;214330.00;0.71;370.59;0.00;0.00;0.62;;;;;21.00;1.00;;;;;;2272530;61;1681;-87
2022/07/16 03:24:34;243489.00;0.81;420.75;50964.00;0.17;88.85;;;;;20.70;1.00;;;;;;2272894;61;1692;-87
2022/07/16 03:27:01;14038.00;0.05;24.94;0.00;0.00;0.62;;;;;20.70;1.00;;;;;;2272991;61;932;-86
2022/07/16 03:29:28;201681.00;0.67;348.82;0.00;0.00;0.62;;;;;20.60;1.00;;;;;;2272927;61;2127;-86
2022/07/16 03:31:55;95579.00;0.32;165.94;0.00;0.00;0.62;;;;;20.60;1.00;;;;;;2272828;61;1565;-86
2022/07/16 03:34:23;0.00;0.00;0.62;0.00;0.00;0.62;;;;;20.50;1.00;;;;;;2272966;61;926;-86
2022/07/16 03:36:50;126580.00;0.42;219.43;0.00;0.00;0.62;;;;;20.20;1.00;;;;;;2272934;61;1915;-86
2022/07/16 03:39:18;305745.00;1.02;527.80;22390.00;0.07;39.41;;;;;20.10;1.00;;;;;;2272859;61;1051;-85
2022/07/16 03:41:45;127581.00;0.43;221.16;0.00;0.00;0.62;;;;;20.20;1.00;;;;;;2272840;61;1280;-86
2022/07/16 03:44:13;49227.00;0.16;85.85;0.00;0.00;0.62;;;;;20.30;1.00;;;;;;2272786;61;1816;-87
2022/07/16 03:46:40;216330.00;0.72;374.03;0.00;0.00;0.62;;;;;20.60;1.00;;;;;;2272893;61;1125;-85
2022/07/16 03:49:07;263305.00;0.88;454.83;0.00;0.00;0.62;;;;;20.50;1.00;;;;;;2272769;61;1553;-86
2022/07/16 03:51:35;310698.00;1.04;536.31;0.00;0.00;0.62;;;;;20.40;1.00;;;;;;2272857;61;1294;-86
2022/07/16 03:54:02;190336.00;0.63;329.29;0.00;0.00;0.62;;;;;20.20;1.00;;;;;;2272894;61;991;-86
2022/07/16 03:56:30;426740.00;1.42;735.78;29335.00;0.10;51.43;;;;;20.30;1.00;;;;;;2272872;61;1066;-86
2022/07/16 03:58:57;186751.00;0.62;323.11;0.00;0.00;0.62;;;;;20.30;1.00;;;;;;2272836;61;1928;-86
2022/07/16 04:01:25;195453.00;0.65;338.10;0.00;0.00;0.62;;;;;20.20;1.00;;;;;;2272854;61;1333;-86
2022/07/16 04:03:52;224965.00;0.75;388.89;0.00;0.00;0.62;;;;;19.90;1.00;;;;;;2272840;61;1119;-86
2022/07/16 04:06:19;38405.00;0.13;67.13;0.00;0.00;0.62;;;;;19.70;1.00;;;;;;2272799;61;2011;-86
2022/07/16 04:08:46;163563.00;0.55;283.18;0.00;0.00;0.62;;;;;19.60;1.00;;;;;;2272737;61;2125;-87
2022/07/16 04:11:13;197381.00;0.66;341.42;0.00;0.00;0.62;;;;;19.80;1.00;;;;;;2272763;61;1402;-86
2022/07/16 04:13:42;136794.00;0.46;237.04;0.00;0.00;0.62;;;;;20.00;1.00;;;;;;2272915;61;992;-87
2022/07/16 04:16:10;148419.00;0.49;257.08;0.00;0.00;0.62;;;;;20.20;1.00;;;;;;2272628;61;1434;-88
2022/07/16 04:18:37;60916.00;0.20;106.06;0.00;0.00;0.62;;;;;20.10;1.00;;;;;;2279421;39;3618;-89
2022/07/16 04:21:04;358078.00;1.19;617.75;71733.00;0.24;124.75;;;;;20.40;1.00;;;;;;2272742;61;1388;-87
2022/07/16 04:23:31;267766.00;0.89;462.50;0.00;0.00;0.62;;;;;20.50;1.00;;;;;;2272706;61;1044;-86
2022/07/16 04:25:58;189751.00;0.63;328.28;0.00;0.00;0.62;;;;;20.40;1.00;;;;;;2272644;61;1417;-87
2022/07/16 04:28:25;239867.00;0.80;414.52;0.00;0.00;0.62;;;;;20.20;1.00;;;;;;2272738;61;1429;-85
2022/07/16 04:30:54;146941.00;0.49;254.54;0.00;0.00;0.62;;;;;20.00;1.00;;;;;;2272627;61;1301;-86
2022/07/16 04:33:21;138113.00;0.46;239.32;0.00;0.00;0.62;;;;;20.30;1.00;;;;;;2272624;61;1570;-86
2022/07/16 04:35:49;164501.00;0.55;284.79;0.00;0.00;0.62;;;;;20.40;1.00;;;;;;2272726;61;1721;-86
2022/07/16 04:38:16;278481.00;0.93;480.93;37834.00;0.13;66.14;;;;;20.40;1.00;;;;;;2272622;61;2010;-86
2022/07/16 04:40:43;198580.00;0.66;343.48;0.00;0.00;0.62;;;;;20.20;1.00;;;;;;2272536;61;1438;-85
2022/07/16 04:43:10;236414.00;0.79;408.58;12346.00;0.04;22.01;;;;;20.50;1.00;;;;;;2272759;61;1113;-86
2022/07/16 04:45:37;190202.00;0.63;329.06;0.00;0.00;0.62;;;;;20.70;1.00;;;;;;2272602;61;1659;-86
2022/07/16 04:48:06;225507.00;0.75;389.82;0.00;0.00;0.62;;;;;21.00;1.00;;;;;;2272677;61;979;-86
2022/07/16 04:50:33;229028.00;0.76;395.88;0.00;0.00;0.62;;;;;21.10;1.00;;;;;;2272659;61;1268;-87
2022/07/16 04:53:00;198021.00;0.66;342.52;0.00;0.00;0.62;;;;;21.00;1.00;;;;;;2272575;61;1252;-87
2022/07/16 04:55:28;308679.00;1.03;532.84;0.00;0.00;0.62;;;;;20.90;1.00;;;;;;2272569;61;939;-86
2022/07/16 04:57:55;532099.00;1.77;917.11;36438.00;0.12;63.73;;;;;20.90;1.00;;;;;;2272482;61;1994;-87
2022/07/16 05:00:22;131502.00;0.44;227.92;0.00;0.00;0.62;;;;;21.00;1.00;;;;;;2272617;61;1296;-87
2022/07/16 05:02:58;225834.00;0.75;390.38;0.00;0.00;0.62;;;;;21.00;1.00;;;;;;2272635;61;1587;-88
2022/07/16 05:05:27;322669.00;1.08;556.89;38281.00;0.13;66.91;;;;;21.00;1.00;;;;;;2272624;61;1056;-89
2022/07/16 05:07:54;176587.00;0.59;305.61;0.00;0.00;0.62;;;;;21.10;1.00;;;;;;2272490;61;1585;-86
2022/07/16 05:10:21;272696.00;0.91;470.98;0.00;0.00;0.62;;;;;20.90;1.00;;;;;;2272555;61;1041;-87
2022/07/16 05:12:49;119472.00;0.40;207.17;0.00;0.00;0.62;;;;;21.20;1.00;;;;;;2272602;61;1141;-87
2022/07/16 05:15:16;181722.00;0.61;314.45;0.00;0.00;0.62;;;;;20.90;1.00;;;;;;2272462;61;1551;-87
2022/07/16 05:17:43;115221.00;0.38;199.84;0.00;0.00;0.62;;;;;20.80;1.00;;;;;;2272457;61;1917;-85
2022/07/16 05:20:11;220012.00;0.73;380.36;0.00;0.00;0.62;;;;;21.00;1.00;;;;;;2272564;61;952;-86
2022/07/16 05:22:39;517205.00;1.72;891.45;57700.00;0.19;100.50;;;;;21.10;1.00;;;;;;2272479;61;1700;-88
2022/07/16 05:25:08;151806.00;0.51;262.92;0.00;0.00;0.62;;;;;21.20;1.00;;;;;;2272493;61;998;-87
2022/07/16 05:27:35;179862.00;0.60;311.25;0.00;0.00;0.62;;;;;21.10;1.00;;;;;;2272582;61;1191;-87
2022/07/16 05:30:03;238147.00;0.79;411.56;0.00;0.00;0.62;;;;;21.00;1.00;;;;;;2272583;61;1069;-88
2022/07/16 05:32:30;137772.00;0.46;238.73;0.00;0.00;0.62;;;;;21.30;1.00;;;;;;2272559;61;1298;-88
2022/07/16 05:34:57;180939.00;0.60;313.11;0.00;0.00;0.62;;;;;20.90;1.00;;;;;;2272514;61;1043;-87
2022/07/16 05:37:24;212022.00;0.71;366.62;0.00;0.00;0.62;;;;;20.60;1.00;;;;;;2272408;61;2010;-87
2022/07/16 05:39:52;237879.00;0.79;411.10;0.00;0.00;0.62;;;;;20.20;1.00;;;;;;2271900;61;1180;-86
2022/07/16 05:44:55;366505.00;1.22;632.23;73879.00;0.25;128.46;;;;;20.20;1.00;;;;;;1637715;60;1811;-88
2022/07/16 05:47:22;536861.00;1.79;925.31;147706.00;0.49;255.85;;;;;20.60;1.00;;;;;;2270936;55;3740;-87
2022/07/16 05:49:51;118046032.00;393.49;66632972.00;73614.00;0.25;128.01;;;;;21.50;1.00;;;;;;2306014;40;3637;-88
2022/07/16 05:52:18;644182.00;2.15;1110.57;72631.00;0.24;126.31;;;;;23.30;1.00;;;;;;2313420;40;3582;-85
2022/07/16 05:54:45;371862.00;1.24;641.44;79500.00;0.26;138.17;;;;;25.00;1.00;;;;;;2272986;61;991;-87
2022/07/16 05:57:14;374393.00;1.25;645.79;73452.00;0.24;127.73;;;;;27.00;1.00;;;;;;2273002;61;1218;-88
2022/07/16 05:59:41;527614.00;1.76;909.38;154008.00;0.51;266.71;;;;;28.40;1.00;;;;;;2289663;40;3554;-88
2022/07/16 06:02:08;549647.00;1.83;947.35;81824.00;0.27;142.19;;;;;28.70;1.00;;;;;;2304803;56;3769;-86
2022/07/16 06:04:35;118086624.00;393.62;66701784.00;69695.00;0.23;121.23;;;;;29.30;1.00;;;;;;2298099;56;3718;-90
2022/07/16 06:07:03;117649664.00;392.17;65963416.00;76532.00;0.26;133.05;;;;;30.00;1.00;;;;;;2272296;61;1044;-88
2022/07/16 06:09:30;536553.00;1.79;924.78;189436.00;0.63;327.74;;;;;29.80;1.00;;;;;;2272238;61;1715;-88
2022/07/16 06:11:57;367902.00;1.23;634.63;65679.00;0.22;114.29;;;;;30.30;1.00;;;;;;2272261;61;1490;-87
2022/07/16 06:14:26;426179.00;1.42;734.82;62597.00;0.21;108.97;;;;;31.10;1.00;;;;;;2272158;61;995;-88
2022/07/16 06:16:53;638107.00;2.13;1100.07;149632.00;0.50;259.17;;;;;31.80;1.00;;;;;;2272121;61;1687;-88
2022/07/16 06:21:50;1648603.00;5.50;2925.99;70099.00;0.23;121.93;;;;;31.50;1.00;;;;;;2320746;39;3691;-88
2022/07/16 06:24:17;625131.00;2.08;1077.63;85936.00;0.29;149.29;;;;;31.60;1.00;;;;;;2272251;61;1601;-87
2022/07/16 06:26:47;351058.00;1.17;605.68;63322.00;0.21;110.22;;;;;31.60;1.00;;;;;;2272252;61;1615;-88
2022/07/16 06:29:15;480518.00;1.60;828.29;67476.00;0.22;117.40;;;;;32.40;1.00;;;;;;2272176;61;1468;-86
2022/07/16 06:31:45;361351.00;1.20;623.37;109130.00;0.36;189.33;;;;;33.00;1.00;;;;;;2272260;61;1271;-87
2022/07/16 06:34:12;367227.00;1.22;633.47;47012.00;0.16;82.02;;;;;33.70;1.00;;;;;;2272298;61;1061;-88
2022/07/16 06:36:39;575976.00;1.92;992.76;118801.00;0.40;206.01;;;;;33.80;1.00;;;;;;2272284;61;902;-87
2022/07/16 06:39:07;456438.00;1.52;786.86;60730.00;0.20;105.74;;;;;34.00;1.00;;;;;;2272270;61;1998;-87
2022/07/16 06:41:36;283168.00;0.94;488.98;54765.00;0.18;95.43;;;;;34.40;1.00;;;;;;2272201;61;1908;-87
2022/07/16 06:44:04;380390.00;1.27;656.10;87698.00;0.29;152.33;;;;;34.70;1.00;;;;;;2272281;61;1951;-87
2022/07/16 06:46:31;471725.00;1.57;813.16;110251.00;0.37;191.26;;;;;35.20;1.00;;;;;;2272143;61;1108;-86
2022/07/16 06:49:00;287667.00;0.96;496.72;64211.00;0.21;111.76;;;;;34.60;1.00;;;;;;2272263;61;1106;-85
2022/07/16 06:51:27;211692.00;0.71;366.05;0.00;0.00;0.62;;;;;34.80;1.00;;;;;;2272157;61;1387;-87
2022/07/16 06:53:54;87468.00;0.29;151.94;0.00;0.00;0.62;;;;;35.30;1.00;;;;;;2272115;61;1602;-87
2022/07/16 06:56:21;25200.00;0.08;44.27;0.00;0.00;0.62;;;;;35.80;1.00;;;;;;2272661;61;1078;-87
2022/07/16 06:58:48;15986.00;0.05;28.32;0.00;0.00;0.62;;;;;35.80;1.00;;;;;;2272732;61;1916;-85
2022/07/16 07:01:15;0.00;0.00;0.62;0.00;0.00;0.62;;;;;35.20;1.00;;;;;;2272889;61;1285;-87
2022/07/16 07:03:42;80888.00;0.27;140.57;0.00;0.00;0.62;;;;;35.50;1.00;;;;;;2272962;61;1512;-88
2022/07/16 07:06:11;25430.00;0.08;44.67;0.00;0.00;0.62;;;;;36.20;1.00;;;;;;2272932;61;1121;-87
2022/07/16 07:08:38;59839.00;0.20;104.20;0.00;0.00;0.62;;;;;36.20;1.00;;;;;;2272917;61;1082;-87
2022/07/16 07:11:05;0.00;0.00;0.62;0.00;0.00;0.62;;;;;36.10;1.00;;;;;;2272891;61;1344;-88
2022/07/16 07:13:32;67619.00;0.23;117.65;0.00;0.00;0.62;;;;;36.60;1.00;;;;;;2272858;61;997;-89
2022/07/16 07:16:00;142821.00;0.48;247.43;0.00;0.00;0.62;;;;;36.60;1.00;;;;;;2272783;61;924;-87
2022/07/16 07:18:27;23127.00;0.08;40.68;0.00;0.00;0.62;;;;;36.40;1.00;;;;;;2272724;61;1911;-86
2022/07/16 07:20:54;15009.00;0.05;26.63;0.00;0.00;0.62;;;;;36.30;1.00;;;;;;2272752;61;1381;-88
2022/07/16 07:23:23;67638.00;0.23;117.68;0.00;0.00;0.62;;;;;36.40;1.00;;;;;;2272843;61;964;-90
2022/07/16 07:25:50;81031.00;0.27;140.82;0.00;0.00;0.62;;;;;37.00;1.00;;;;;;2272832;61;1098;-88
2022/07/16 07:28:17;255421.00;0.85;441.27;0.00;0.00;0.62;;;;;37.40;1.00;;;;;;2272902;61;1603;-89
2022/07/16 07:30:44;221849.00;0.74;383.53;0.00;0.00;0.62;;;;;37.60;1.00;;;;;;2272934;61;1268;-88
2022/07/16 07:33:11;149265.00;0.50;258.54;0.00;0.00;0.62;;;;;37.30;1.00;;;;;;2272773;61;1069;-87
2022/07/16 07:35:38;167284.00;0.56;289.59;0.00;0.00;0.62;;;;;37.00;1.00;;;;;;2272890;61;1109;-87
2022/07/16 07:38:05;182116.00;0.61;315.13;0.00;0.00;0.62;;;;;37.70;1.00;;;;;;2272806;61;1908;-88
2022/07/16 07:40:33;165104.00;0.55;285.83;0.00;0.00;0.62;;;;;37.80;1.00;;;;;;2272782;61;1377;-87
2022/07/16 07:43:00;120011.00;0.40;208.10;0.00;0.00;0.62;;;;;37.20;1.00;;;;;;2272841;61;962;-86
2022/07/16 07:45:28;30765.00;0.10;53.91;0.00;0.00;0.62;;;;;36.40;1.00;;;;;;2272569;61;936;-87
2022/07/16 07:47:55;198915.00;0.66;344.06;30309.00;0.10;53.12;;;;;36.80;1.00;;;;;;2272655;61;1117;-87
2022/07/16 07:50:22;233912.00;0.78;404.28;0.00;0.00;0.62;;;;;36.80;1.00;;;;;;2272755;61;1032;-87
2022/07/16 07:52:49;315095.00;1.05;543.87;0.00;0.00;0.62;;;;;37.40;1.00;;;;;;2272871;61;900;-88
2022/07/16 07:55:17;325358.00;1.08;561.51;0.00;0.00;0.62;;;;;38.00;1.00;;;;;;2272726;61;1348;-88
2022/07/16 07:57:45;347438.00;1.16;599.46;70824.00;0.24;123.18;;;;;37.70;1.00;;;;;;2272749;61;1649;-88
2022/07/16 08:05:11;1709475.00;5.70;3043.85;0.00;0.00;0.62;;;;;36.70;1.00;;;;;;2286028;56;3661;-87
2022/07/16 08:07:38;86554.00;0.29;150.36;0.00;0.00;0.62;;;;;37.10;1.00;;;;;;2272425;61;1138;-88
2022/07/16 08:10:08;335544.00;1.12;579.01;79752.00;0.27;138.61;;;;;37.20;1.00;;;;;;2274619;39;3554;-88
2022/07/16 08:12:35;474194.00;1.58;817.41;28523.00;0.10;50.03;;;;;36.90;1.00;;;;;;2272431;61;1398;-88
2022/07/16 08:15:05;273496.00;0.91;472.35;0.00;0.00;0.62;;;;;37.00;1.00;;;;;;2272617;61;896;-87
2022/07/16 08:17:35;217226.00;0.72;375.57;0.00;0.00;0.62;;;;;36.40;1.00;;;;;;2272584;61;1069;-87
2022/07/16 08:20:02;313740.00;1.05;541.54;0.00;0.00;0.62;;;;;36.60;1.00;;;;;;2272169;61;1923;-89
2022/07/16 08:22:31;576575.00;1.92;993.79;97678.00;0.33;169.56;;;;;36.40;1.00;;;;;;2272510;61;1555;-88
2022/07/16 08:27:42;174649.00;0.58;302.27;0.00;0.00;0.62;;;;;36.20;1.00;;;;;;2272554;61;750;-88
2022/07/16 08:30:17;109229.00;0.36;189.50;0.00;0.00;0.62;;;;;35.90;1.00;;;;;;2272495;61;1468;-88
2022/07/16 08:32:47;501936.00;1.67;865.16;92751.00;0.31;161.06;;;;;37.00;1.00;;;;;;2307825;40;3795;-88
2022/07/16 08:35:14;275341.00;0.92;475.53;69648.00;0.23;121.15;;;;;36.30;1.00;;;;;;2272511;61;1429;-86
2022/07/16 08:37:43;307745.00;1.03;531.23;0.00;0.00;0.62;;;;;35.80;1.00;;;;;;2272625;61;908;-87
2022/07/16 08:40:14;313602.00;1.05;541.30;0.00;0.00;0.62;;;;;35.80;1.00;;;;;;2272476;61;2148;-88
2022/07/16 08:42:43;341379.00;1.14;589.04;843.00;0.00;2.08;;;;;35.90;1.00;;;;;;2273540;55;3818;-87
2022/07/16 08:45:23;339252.00;1.13;585.39;80107.00;0.27;139.22;;;;;35.10;1.00;;;;;;2272632;61;1031;-88
2022/07/16 08:47:52;53461.00;0.18;93.17;0.00;0.00;0.62;;;;;34.80;1.00;;;;;;2272511;61;1729;-88
2022/07/16 08:50:27;196603.00;0.66;340.08;0.00;0.00;0.62;;;;;34.80;1.00;;;;;;2272376;61;1588;-87
2022/07/16 08:52:59;107554.00;0.36;186.61;0.00;0.00;0.62;;;;;35.30;1.00;;;;;;2258058;61;1085;-87
2022/07/16 09:01:01;321542.00;1.07;554.95;53283.00;0.18;92.86;;;;;34.80;1.00;;;;;;2272330;61;1993;-87
2022/07/16 09:03:35;857633.00;2.86;1481.83;54561.00;0.18;95.07;;;;;34.10;1.00;;;;;;2293337;56;3949;-84
2022/07/16 09:06:05;905320.00;3.02;1565.47;106899.00;0.36;185.48;;;;;33.50;1.00;;;;;;2272241;61;1604;-86
2022/07/16 09:08:46;949015.00;3.16;1642.37;181445.00;0.60;313.98;;;;;33.00;1.00;;;;;;2272347;61;1573;-87
2022/07/16 09:11:23;134165304.00;447.22;97862224.00;49645.00;0.17;86.57;;;;;33.00;1.00;;;;;;2303683;41;3735;-87
2022/07/16 09:14:04;1523924.00;5.08;2688.22;99444.00;0.33;172.61;;;;;32.70;1.00;;;;;;2272340;61;1552;-86
2022/07/16 09:25:31;80334.00;0.27;139.61;0.00;0.00;0.62;;;;;33.00;1.00;;;;;;2284850;40;3848;-85
2022/07/16 09:30:55;706333.00;2.35;1218.22;41590.00;0.14;72.64;;;;;32.30;1.00;;;;;;2287444;56;3729;-86
2022/07/16 09:36:15;1692864.00;5.64;3011.57;93070.00;0.31;161.61;;;;;30.40;1.00;;;;;;2296537;40;3662;-89
2022/07/16 09:38:56;918945.00;3.06;1589.42;60753.00;0.20;105.78;;;;;30.40;1.00;;;;;;2263615;61;1922;-88
2022/07/16 09:44:01;802440.00;2.67;1385.38;48384.00;0.16;84.39;;;;;30.30;1.00;;;;;;2406228;40;2127;-87
2022/07/16 09:46:38;972310.00;3.24;1683.49;118259.00;0.39;205.08;;;;;29.80;1.00;;;;;;2272408;61;1480;-86
2022/07/16 09:49:07;839653.00;2.80;1450.37;33094.00;0.11;57.94;;;;;29.60;1.00;;;;;;2300344;40;3793;-87
2022/07/16 09:51:39;741929.00;2.47;1280.03;85621.00;0.29;148.75;;;;;29.20;1.00;;;;;;2273025;61;1434;-88
2022/07/16 09:54:30;1744800.00;5.82;3112.81;120540.00;0.40;209.01;;;;;29.20;1.00;;;;;;2272300;61;2095;-86
2022/07/16 09:57:13;1094438.00;3.65;1900.48;88673.00;0.30;154.02;;;;;29.00;1.00;;;;;;2272295;61;1640;-87
2022/07/16 09:59:58;393933.00;1.31;679.38;0.00;0.00;0.62;;;;;28.80;1.00;;;;;;2279030;55;3806;-86
2022/07/16 10:02:55;507306.00;1.69;874.40;9087.00;0.03;16.37;;;;;29.20;1.00;;;;;;2289058;39;3634;-86
2022/07/16 10:05:26;238969.00;0.80;412.98;0.00;0.00;0.62;;;;;29.60;1.00;;;;;;2268544;61;1569;-87
2022/07/16 10:07:53;372207.00;1.24;642.03;78892.00;0.26;137.12;;;;;29.90;1.00;;;;;;2300829;40;3750;-85
2022/07/16 10:15:33;1277650.00;4.26;2231.26;0.00;0.00;0.62;;;;;28.80;1.00;;;;;;2207230;39;3516;-85
2022/07/16 10:18:01;282954.00;0.94;488.62;0.00;0.00;0.62;;;;;28.50;1.00;;;;;;2278385;39;3595;-83
2022/07/16 10:20:28;894657.00;2.98;1546.74;21886.00;0.07;38.54;;;;;28.40;1.00;;;;;;2272435;61;2021;-85
2022/07/16 10:22:55;401195.00;1.34;691.86;0.00;0.00;0.62;;;;;28.00;1.00;;;;;;2274499;55;3787;-87
2022/07/16 10:25:26;176815.00;0.59;306.00;0.00;0.00;0.62;;;;;28.30;1.00;;;;;;2273015;61;989;-85
2022/07/16 10:27:55;262368.00;0.87;453.22;26330.00;0.09;46.23;;;;;28.10;1.00;;;;;;2272885;61;1297;-86
2022/07/16 10:30:26;156190.00;0.52;270.47;21577.00;0.07;38.00;;;;;28.00;1.00;;;;;;2272821;61;1051;-87
2022/07/16 10:33:17;85391.00;0.28;148.35;0.00;0.00;0.62;;;;;28.50;1.00;;;;;;2268852;61;1064;-85
2022/07/16 10:38:20;253275.00;0.84;437.58;52606.00;0.18;91.69;;;;;28.60;1.00;;;;;;2270771;61;1269;-85
2022/07/16 10:41:08;195825.00;0.65;338.74;0.00;0.00;0.62;;;;;28.30;1.00;;;;;;2268749;61;2021;-85